Higginsville, MO (64037)

1:46 PM CDT on August 29, 2015 (GMT -0500)
Citizens In Higginsville | | Change Station
CLOSE
Current Station
Personal Weather Station
Location: Higginsville, MO
Elevation: 837 ft
Nearby Weather Stations

Elev 837 ft 39.08 °N, 93.72 °W | Updated 26 seconds ago

Overcast
Overcast
80.2 °F
Feels Like 84 °F
N
2.0
Wind Variable Wind from WSW
Gusts 4.0 mph

Today
High -- | Low -- °F
--% Chance of Precip.
Yesterday
High -- | Low -- °F
Precip. -- in
6:40 AM 7:50 PM
Full, 100% visible
Pressure 30.00 in
Visibility 10.0 miles
Clouds Scattered Clouds 2300 ft
Overcast 3600 ft
Heat Index 84 °F
Dew Point 72 °F
Humidity 75%
Rainfall 0.00 in
Snow Depth Not available.
UV 0.0 out of 12
Pollen 8.40 out of 12
Air Quality Not available.
Flu Activity Not available.
METAR KRCM 291835Z AUTO 00000KT 10SM SCT023 OVC036 26/20 A3000 RMK AO2
Pressure 30.00 in
Visibility 10.0 miles
Clouds Scattered Clouds 2300 ft
Overcast 3600 ft
Heat Index 84 °F
Dew Point 72 °F
Humidity 75%
Rainfall 0.00 in
Snow Depth Not available.
UV 0.0 out of 12
Pollen 8.40 out of 12
Air Quality Not available.
Flu Activity Not available.
METAR KRCM 291835Z AUTO 00000KT 10SM SCT023 OVC036 26/20 A3000 RMK AO2

10-Day Weather Forecast

×

Almanac

Astronomy

Aug. 29, 2015 Rise Set
Actual Time
Civil Twilight
Nautical Twilight
Astronomical Twilight
Moon
Length of Visible Light
Length of Day
Tomorrow will be .
, % of the Moon is Illuminated

Today's Extremes

State Highs State Lows

Community

WunderPhotos

Upload Photos

1,850,764 photos uploaded!

WunderBlogs® & News

Nearby

Air Quality

  Air Quality AQ Index Pollutant
Not available.

Snow Depth

Station Depth Elevation

Earthquake Activity

City Distance Mag. Time & Date
Minimum magnitude displayed is 2.5.

Coastal Water Temperatures

Place Temperature

Stations

Nearby Weather Stations

Station Location Temp. Windchill Dew Point Humidity Wind Precip. Elev Updated Type